createdAt,value
2017-11-27T00:00:35.400Z,24.50
2017-11-27T00:01:39.715Z,19.50
2017-11-27T00:02:43.910Z,21.50
2017-11-27T00:03:48.139Z,24.00
2017-11-27T00:04:52.336Z,19.00
2017-11-27T00:05:56.614Z,20.50
2017-11-27T00:07:01.176Z,20.50
2017-11-27T00:08:05.411Z,26.00
2017-11-27T00:09:09.746Z,17.00
2017-11-27T00:10:14.033Z,21.50
2017-11-27T00:11:18.324Z,20.00
2017-11-27T00:12:22.590Z,20.50
2017-11-27T00:13:28.143Z,16.00
2017-11-27T00:14:32.391Z,17.00
2017-11-27T00:15:37.005Z,21.50
2017-11-27T00:16:41.277Z,20.00
2017-11-27T00:17:45.445Z,20.00
2017-11-27T00:18:49.688Z,12.00
2017-11-27T00:19:53.880Z,15.00
2017-11-27T00:20:58.117Z,16.00
2017-11-27T00:22:02.499Z,18.00
2017-11-27T00:23:06.736Z,17.00
2017-11-27T00:24:11.110Z,22.50
2017-11-27T00:25:15.559Z,19.50
2017-11-27T00:26:19.951Z,18.00
2017-11-27T00:27:25.372Z,17.50
2017-11-27T00:28:30.379Z,18.50
2017-11-27T00:29:34.640Z,19.00
2017-11-27T00:30:38.874Z,21.00
2017-11-27T00:31:43.063Z,13.50
2017-11-27T00:32:47.329Z,19.50
2017-11-27T00:33:51.560Z,17.50
2017-11-27T00:34:55.793Z,21.00
2017-11-27T00:35:59.956Z,18.00
2017-11-27T00:37:04.150Z,17.00
2017-11-27T00:38:08.347Z,18.50
2017-11-27T00:39:12.672Z,23.50
2017-11-27T00:40:16.900Z,13.50
2017-11-27T00:41:22.304Z,18.50
2017-11-27T00:42:27.780Z,16.00
2017-11-27T00:43:32.061Z,17.00
2017-11-27T00:44:36.261Z,21.00
2017-11-27T00:45:40.626Z,26.00
2017-11-27T00:46:44.751Z,25.00
2017-11-27T00:47:49.398Z,14.00
2017-11-27T00:48:53.594Z,21.00
2017-11-27T00:49:57.855Z,16.00
2017-11-27T00:51:02.058Z,14.00
2017-11-27T00:52:06.284Z,21.00
2017-11-27T00:53:10.572Z,17.00
2017-11-27T00:54:15.191Z,18.50
2017-11-27T00:55:20.537Z,19.00
2017-11-27T00:56:29.827Z,15.50
2017-11-27T00:57:34.093Z,13.50
2017-11-27T00:58:38.417Z,19.00
2017-11-27T00:59:42.697Z,17.00
2017-11-27T01:00:47.579Z,23.00
2017-11-27T01:01:51.848Z,19.00
2017-11-27T01:02:56.167Z,15.00
2017-11-27T01:04:00.406Z,16.50
2017-11-27T01:05:04.580Z,18.00
2017-11-27T01:06:08.738Z,19.50
2017-11-27T01:07:13.093Z,13.00
2017-11-27T01:08:17.929Z,15.00
2017-11-27T01:09:23.073Z,19.50
2017-11-27T01:10:28.006Z,17.00
2017-11-27T01:11:32.301Z,14.00
2017-11-27T01:12:36.512Z,19.00
2017-11-27T01:13:41.011Z,12.00
2017-11-27T01:14:45.207Z,17.50
2017-11-27T01:15:49.640Z,17.50
2017-11-27T01:16:53.975Z,16.50
2017-11-27T01:17:58.149Z,15.50
2017-11-27T01:19:02.310Z,16.00
2017-11-27T01:20:06.832Z,17.00
2017-11-27T01:21:11.061Z,15.50
2017-11-27T01:22:15.433Z,18.00
2017-11-27T01:23:20.920Z,10.50
2017-11-27T01:24:25.744Z,18.50
2017-11-27T01:25:29.947Z,20.00
2017-11-27T01:26:34.248Z,25.50
2017-11-27T01:27:38.401Z,22.50
2017-11-27T01:28:42.579Z,21.00
2017-11-27T01:29:46.765Z,19.00
2017-11-27T01:30:51.231Z,18.50
2017-11-27T01:31:55.535Z,15.00
2017-11-27T01:32:59.718Z,17.00
2017-11-27T01:34:03.983Z,14.00
2017-11-27T01:35:08.169Z,13.00
2017-11-27T01:36:12.632Z,26.00
2017-11-27T01:37:16.790Z,11.50
2017-11-27T01:38:21.039Z,14.00
2017-11-27T01:39:25.312Z,14.50
2017-11-27T01:40:29.510Z,10.00
2017-11-27T01:41:33.722Z,16.50
2017-11-27T01:42:37.878Z,16.50
2017-11-27T01:43:42.369Z,14.00
2017-11-27T01:44:46.596Z,16.50
2017-11-27T01:45:51.070Z,28.50
2017-11-27T01:46:55.306Z,24.50
2017-11-27T01:47:59.496Z,16.50
2017-11-27T01:49:03.830Z,17.50
2017-11-27T01:50:08.317Z,23.00
2017-11-27T01:51:12.590Z,26.50
2017-11-27T01:52:16.857Z,24.00
2017-11-27T01:53:21.847Z,20.00
2017-11-27T01:54:26.018Z,20.50
2017-11-27T01:55:33.066Z,24.00
2017-11-27T01:56:38.424Z,20.00
2017-11-27T01:57:42.644Z,24.50
2017-11-27T01:58:46.813Z,27.00
2017-11-27T01:59:50.948Z,31.00
2017-11-27T02:00:55.456Z,29.00
2017-11-27T02:02:01.081Z,30.00
2017-11-27T02:03:05.261Z,20.50
2017-11-27T02:04:10.359Z,21.00
2017-11-27T02:05:14.587Z,17.00
2017-11-27T02:06:18.765Z,18.00
2017-11-27T02:07:23.640Z,23.00
2017-11-27T02:08:28.162Z,31.00
2017-11-27T02:09:32.503Z,26.00
2017-11-27T02:10:36.830Z,22.00
2017-11-27T02:11:41.017Z,22.00
2017-11-27T02:12:45.199Z,27.00
2017-11-27T02:13:49.449Z,22.50
2017-11-27T02:14:54.037Z,26.50
2017-11-27T02:15:58.427Z,29.50
2017-11-27T02:17:02.917Z,28.50
2017-11-27T02:18:07.159Z,19.50
2017-11-27T02:19:11.540Z,14.50
2017-11-27T02:20:15.752Z,22.00
2017-11-27T02:21:20.328Z,17.00
2017-11-27T02:22:25.299Z,23.50
2017-11-27T02:23:29.419Z,27.50
2017-11-27T02:24:33.572Z,20.50
2017-11-27T02:25:37.783Z,26.50
2017-11-27T02:26:42.069Z,27.50
2017-11-27T02:27:46.236Z,17.00
2017-11-27T02:28:50.424Z,19.50
2017-11-27T02:29:54.671Z,17.00
2017-11-27T02:30:59.286Z,20.50
2017-11-27T02:32:03.672Z,22.50
2017-11-27T02:33:07.895Z,23.00
2017-11-27T02:34:12.525Z,27.00
2017-11-27T02:35:17.224Z,23.00
2017-11-27T02:36:22.965Z,12.50
2017-11-27T02:37:28.654Z,38.50
2017-11-27T02:38:32.937Z,28.00
2017-11-27T02:39:37.144Z,21.00
2017-11-27T02:40:41.678Z,27.00
2017-11-27T02:41:45.864Z,30.00
2017-11-27T02:42:49.991Z,20.50
2017-11-27T02:43:54.249Z,27.50
2017-11-27T02:44:58.457Z,33.00
2017-11-27T02:46:02.927Z,30.50
2017-11-27T02:47:07.501Z,23.00
2017-11-27T02:48:11.854Z,29.00
2017-11-27T02:49:16.128Z,20.50
2017-11-27T02:50:21.199Z,32.50
2017-11-27T02:51:25.373Z,34.50
2017-11-27T02:52:30.135Z,30.50
2017-11-27T02:53:34.285Z,39.50
2017-11-27T02:54:38.506Z,28.00
2017-11-27T02:55:42.659Z,34.00
2017-11-27T02:56:46.844Z,33.50
2017-11-27T02:57:51.089Z,34.50
2017-11-27T02:58:55.590Z,36.50
2017-11-27T02:59:59.737Z,33.00
2017-11-27T03:01:04.156Z,34.50
2017-11-27T03:02:08.356Z,23.00
2017-11-27T03:03:12.593Z,37.00
2017-11-27T03:04:16.818Z,33.00
2017-11-27T03:05:22.472Z,31.00
2017-11-27T03:06:26.709Z,28.50
2017-11-27T03:07:30.968Z,31.00
2017-11-27T03:08:38.777Z,32.00
2017-11-27T03:09:42.974Z,31.00
2017-11-27T03:10:47.163Z,28.50
2017-11-27T03:11:52.140Z,35.00
2017-11-27T03:12:56.308Z,31.50
2017-11-27T03:14:00.457Z,18.50
2017-11-27T03:15:06.838Z,24.50
2017-11-27T03:16:11.619Z,31.50
2017-11-27T03:17:16.077Z,44.00
2017-11-27T03:18:21.364Z,38.50
2017-11-27T03:19:25.559Z,40.50
2017-11-27T03:20:30.734Z,40.50
2017-11-27T03:21:35.628Z,33.50
2017-11-27T03:22:39.839Z,30.50
2017-11-27T03:23:44.083Z,35.50
2017-11-27T03:24:48.640Z,25.50
2017-11-27T03:25:52.914Z,28.00
2017-11-27T03:26:57.174Z,28.00
2017-11-27T03:28:01.323Z,39.00
2017-11-27T03:29:05.701Z,42.00
2017-11-27T03:30:12.115Z,57.00
2017-11-27T03:31:17.096Z,35.00
2017-11-27T03:32:21.458Z,25.00
2017-11-27T03:33:25.676Z,28.50
2017-11-27T03:34:30.516Z,29.50
2017-11-27T03:35:34.795Z,27.50
2017-11-27T03:36:39.495Z,38.00
2017-11-27T03:37:44.070Z,28.50
2017-11-27T03:38:48.566Z,25.00
2017-11-27T03:39:53.447Z,29.00
2017-11-27T03:40:58.068Z,42.00
2017-11-27T03:42:02.280Z,24.50
2017-11-27T03:43:07.280Z,26.50
2017-11-27T03:44:13.627Z,36.50
2017-11-27T03:45:18.103Z,45.00
2017-11-27T03:46:22.475Z,39.50
2017-11-27T03:47:26.737Z,34.00
2017-11-27T03:48:31.879Z,31.50
2017-11-27T03:49:37.217Z,32.00
2017-11-27T03:50:41.404Z,33.50
2017-11-27T03:51:46.477Z,33.50
2017-11-27T03:52:50.666Z,26.50
2017-11-27T03:53:54.806Z,42.50
2017-11-27T03:54:59.029Z,47.50
2017-11-27T03:56:03.643Z,38.50
2017-11-27T03:57:07.880Z,30.00
2017-11-27T03:58:12.077Z,24.00
2017-11-27T03:59:16.317Z,32.50
2017-11-27T04:00:20.765Z,45.00
2017-11-27T04:01:24.953Z,35.00
2017-11-27T04:02:30.309Z,29.50
2017-11-27T04:03:36.086Z,28.50
2017-11-27T04:04:40.275Z,32.50
2017-11-27T04:05:44.478Z,27.50
2017-11-27T04:06:48.705Z,29.50
2017-11-27T04:07:53.007Z,27.50
2017-11-27T04:08:57.310Z,28.00
2017-11-27T04:10:01.438Z,26.00
2017-11-27T04:11:05.597Z,26.00
2017-11-27T04:12:09.826Z,34.50
2017-11-27T04:13:14.054Z,28.00
2017-11-27T04:14:18.292Z,28.50
2017-11-27T04:15:23.174Z,38.50
2017-11-27T04:16:27.340Z,29.50
2017-11-27T04:17:31.620Z,30.00
2017-11-27T04:18:35.774Z,39.00
2017-11-27T04:19:39.932Z,26.00
2017-11-27T04:20:44.193Z,23.50
2017-11-27T04:21:48.688Z,32.50
2017-11-27T04:22:52.899Z,26.00
2017-11-27T04:23:57.100Z,39.00
2017-11-27T04:25:01.351Z,27.00
2017-11-27T04:26:05.560Z,35.50
2017-11-27T04:27:09.721Z,36.50
2017-11-27T04:28:14.336Z,32.50
2017-11-27T04:29:18.569Z,38.00
2017-11-27T04:30:25.437Z,33.00
2017-11-27T04:31:30.658Z,28.50
2017-11-27T04:32:36.240Z,30.50
2017-11-27T04:33:41.507Z,34.00
2017-11-27T04:34:45.807Z,27.00
2017-11-27T04:35:50.025Z,34.00
2017-11-27T04:36:54.216Z,19.00
2017-11-27T04:37:58.377Z,35.00
2017-11-27T04:39:02.632Z,42.00
2017-11-27T04:40:07.149Z,36.00
2017-11-27T04:41:11.292Z,26.00
2017-11-27T04:42:15.428Z,26.00
2017-11-27T04:43:19.595Z,38.00
2017-11-27T04:44:23.778Z,30.50
2017-11-27T04:45:31.657Z,44.50
2017-11-27T04:46:37.005Z,42.00
2017-11-27T04:47:41.161Z,33.00
2017-11-27T04:48:45.468Z,33.00
2017-11-27T04:49:49.641Z,36.00
2017-11-27T04:50:53.853Z,33.50
2017-11-27T04:51:58.016Z,37.00
2017-11-27T04:53:02.607Z,28.00
2017-11-27T04:54:06.812Z,28.00
2017-11-27T04:55:10.997Z,28.00
2017-11-27T04:56:15.175Z,41.00
2017-11-27T04:57:19.281Z,27.50
2017-11-27T04:58:23.511Z,36.50
2017-11-27T04:59:27.844Z,41.50
2017-11-27T05:00:33.040Z,39.50
2017-11-27T05:01:37.752Z,31.00
2017-11-27T05:02:41.885Z,32.00
2017-11-27T05:03:46.162Z,24.50
2017-11-27T05:04:50.389Z,43.50
2017-11-27T05:05:54.915Z,34.00
2017-11-27T05:06:59.071Z,35.50
2017-11-27T05:08:03.373Z,26.50
2017-11-27T05:09:07.540Z,27.50
2017-11-27T05:10:11.698Z,35.50
2017-11-27T05:11:15.933Z,35.00
2017-11-27T05:12:20.486Z,39.00
2017-11-27T05:13:24.781Z,38.00
2017-11-27T05:14:30.014Z,35.50
2017-11-27T05:15:34.790Z,55.50
2017-11-27T05:16:40.031Z,34.50
2017-11-27T05:17:44.193Z,28.00
2017-11-27T05:18:48.976Z,35.50
2017-11-27T05:19:53.108Z,43.50
2017-11-27T05:20:57.249Z,39.00
2017-11-27T05:22:01.573Z,33.50
2017-11-27T05:23:05.746Z,29.00
2017-11-27T05:24:10.019Z,20.50
2017-11-27T05:25:14.219Z,37.50
2017-11-27T05:26:19.307Z,47.00
2017-11-27T05:27:23.535Z,40.00
2017-11-27T05:28:28.317Z,38.50
2017-11-27T05:29:33.101Z,34.00
2017-11-27T05:30:38.297Z,39.00
2017-11-27T05:31:42.568Z,34.00
2017-11-27T05:32:46.846Z,39.50
2017-11-27T05:33:50.962Z,36.50
2017-11-27T05:34:55.307Z,25.50
2017-11-27T05:35:59.488Z,44.00
2017-11-27T05:37:04.014Z,35.00
2017-11-27T05:38:08.269Z,42.50
2017-11-27T05:39:12.514Z,38.00
2017-11-27T05:40:16.659Z,37.50
2017-11-27T05:41:21.067Z,36.00
2017-11-27T05:42:25.241Z,38.00
2017-11-27T05:43:30.611Z,48.50
2017-11-27T05:44:34.815Z,49.00
2017-11-27T05:45:39.625Z,31.50
2017-11-27T05:46:44.015Z,53.00
2017-11-27T05:47:48.686Z,41.50
2017-11-27T05:48:52.833Z,36.50
2017-11-27T05:49:57.108Z,50.00
2017-11-27T05:51:01.484Z,33.50
2017-11-27T05:52:06.134Z,37.00
2017-11-27T05:53:10.349Z,39.00
2017-11-27T05:54:14.599Z,33.00
2017-11-27T05:55:18.869Z,49.00
2017-11-27T05:56:23.488Z,41.50
2017-11-27T05:57:27.668Z,42.50
2017-11-27T05:58:32.514Z,34.00
2017-11-27T05:59:36.643Z,28.50
2017-11-27T06:00:41.072Z,39.00
2017-11-27T06:01:52.233Z,44.00
2017-11-27T06:02:56.404Z,40.00
2017-11-27T06:04:00.567Z,47.50
2017-11-27T06:05:04.894Z,37.00
2017-11-27T06:06:09.076Z,39.00
2017-11-27T06:07:13.363Z,36.00
2017-11-27T06:08:17.877Z,41.00
2017-11-27T06:09:22.048Z,39.50
2017-11-27T06:10:26.243Z,38.00
2017-11-27T06:11:30.459Z,50.50
2017-11-27T06:12:34.719Z,49.50
2017-11-27T06:13:39.659Z,43.50
2017-11-27T06:14:43.785Z,37.50
2017-11-27T06:15:47.998Z,35.00
2017-11-27T06:16:52.228Z,33.00
2017-11-27T06:17:56.477Z,56.00
2017-11-27T06:19:00.714Z,49.00
2017-11-27T06:20:04.921Z,49.50
2017-11-27T06:21:09.480Z,35.00
2017-11-27T06:22:13.643Z,39.00
2017-11-27T06:23:17.818Z,46.50
2017-11-27T06:24:22.154Z,58.50
2017-11-27T06:25:26.329Z,47.00
2017-11-27T06:26:31.085Z,50.50
2017-11-27T06:27:35.546Z,46.50
2017-11-27T06:28:40.425Z,41.50
2017-11-27T06:29:44.714Z,49.00
2017-11-27T06:30:48.964Z,50.00
2017-11-27T06:31:53.142Z,33.50
2017-11-27T06:32:57.430Z,53.00
2017-11-27T06:34:01.960Z,52.50
2017-11-27T06:35:06.124Z,46.00
2017-11-27T06:36:10.274Z,29.00
2017-11-27T06:37:14.599Z,48.00
2017-11-27T06:38:18.926Z,49.50
2017-11-27T06:39:23.268Z,45.00
2017-11-27T06:40:27.609Z,43.50
2017-11-27T06:41:31.926Z,42.50
2017-11-27T06:42:36.108Z,51.50
2017-11-27T06:43:40.345Z,46.00
2017-11-27T06:44:44.628Z,47.50
2017-11-27T06:45:48.860Z,52.50
2017-11-27T06:46:53.119Z,56.50
2017-11-27T06:47:57.438Z,58.00
2017-11-27T06:49:01.607Z,39.50
2017-11-27T06:50:05.915Z,41.00
2017-11-27T06:51:10.118Z,46.50
2017-11-27T06:52:14.247Z,45.00
2017-11-27T06:53:18.485Z,56.50
2017-11-27T06:54:22.848Z,56.50
2017-11-27T06:55:27.046Z,55.00
2017-11-27T06:56:31.663Z,54.50
2017-11-27T06:57:35.800Z,35.50
2017-11-27T06:58:39.960Z,46.00
2017-11-27T06:59:44.264Z,41.50
2017-11-27T07:00:48.757Z,54.00
2017-11-27T07:01:53.181Z,34.00
2017-11-27T07:02:57.746Z,54.50
2017-11-27T07:04:01.965Z,40.00
2017-11-27T07:05:06.208Z,43.00
2017-11-27T07:06:10.398Z,42.50
2017-11-27T07:07:14.674Z,49.50
2017-11-27T07:08:19.124Z,37.00
2017-11-27T07:09:23.612Z,45.00
2017-11-27T07:10:27.862Z,44.50
2017-11-27T07:11:32.095Z,58.00
2017-11-27T07:12:36.793Z,55.00
2017-11-27T07:13:41.076Z,42.00
2017-11-27T07:14:45.313Z,44.00
2017-11-27T07:15:49.685Z,34.50
2017-11-27T07:16:54.237Z,52.50
2017-11-27T07:17:58.549Z,46.50
2017-11-27T07:19:02.831Z,49.00
2017-11-27T07:20:07.084Z,30.50
2017-11-27T07:21:11.275Z,48.00
2017-11-27T07:22:15.748Z,56.00
2017-11-27T07:23:19.991Z,58.00
2017-11-27T07:24:24.393Z,28.00
2017-11-27T07:25:28.627Z,52.00
2017-11-27T07:26:32.855Z,46.00
2017-11-27T07:27:37.168Z,38.00
2017-11-27T07:28:41.368Z,38.00
2017-11-27T07:29:45.600Z,46.00
2017-11-27T07:30:49.844Z,39.00
2017-11-27T07:31:54.139Z,58.00
2017-11-27T07:32:58.336Z,51.50
2017-11-27T07:34:02.922Z,53.50
2017-11-27T07:35:07.125Z,50.00
2017-11-27T07:36:11.294Z,51.00
2017-11-27T07:37:19.499Z,57.50
2017-11-27T07:38:27.769Z,58.00
2017-11-27T07:40:04.299Z,46.50
2017-11-27T07:41:08.537Z,47.50
2017-11-27T07:42:12.749Z,57.50
2017-11-27T07:43:16.871Z,49.00
2017-11-27T07:44:21.157Z,35.00
2017-11-27T07:45:25.692Z,66.00
2017-11-27T07:46:30.163Z,47.00
2017-11-27T07:47:35.430Z,56.50
2017-11-27T07:48:39.633Z,48.50
2017-11-27T07:49:43.829Z,48.00
2017-11-27T07:50:48.004Z,49.50
2017-11-27T07:51:52.488Z,54.00
2017-11-27T07:52:56.725Z,44.50
2017-11-27T07:54:00.895Z,45.00
2017-11-27T07:55:05.168Z,37.50
2017-11-27T07:56:09.361Z,31.50
2017-11-27T07:57:13.632Z,35.00
2017-11-27T07:58:18.164Z,31.00
2017-11-27T07:59:22.403Z,50.00
2017-11-27T08:00:26.769Z,48.00
2017-11-27T08:01:32.940Z,40.50
2017-11-27T08:03:39.227Z,41.50
2017-11-27T08:04:44.071Z,51.00
2017-11-27T08:05:48.386Z,63.00
2017-11-27T08:06:52.574Z,33.50
2017-11-27T08:07:56.771Z,37.00
2017-11-27T08:09:00.967Z,26.50
2017-11-27T08:10:05.096Z,21.00
2017-11-27T08:11:09.353Z,37.50
2017-11-27T08:12:13.615Z,34.00
2017-11-27T08:13:17.841Z,34.50
2017-11-27T08:14:22.148Z,43.50
2017-11-27T08:15:26.293Z,68.00
2017-11-27T08:16:30.528Z,42.00
2017-11-27T08:17:35.170Z,44.00
2017-11-27T08:18:39.399Z,42.50
2017-11-27T08:19:43.589Z,52.00
2017-11-27T08:20:47.905Z,36.50
2017-11-27T08:21:52.182Z,59.00
2017-11-27T08:22:56.700Z,43.50
2017-11-27T08:24:00.917Z,36.50
2017-11-27T08:25:05.097Z,35.00
2017-11-27T08:26:09.417Z,43.00
2017-11-27T08:27:13.612Z,50.50
2017-11-27T08:28:17.799Z,53.00
2017-11-27T08:29:22.029Z,30.00
2017-11-27T08:30:26.355Z,31.00
2017-11-27T08:31:30.559Z,38.50
2017-11-27T08:32:35.529Z,36.50
2017-11-27T08:33:39.709Z,33.50
2017-11-27T08:34:44.197Z,40.00
2017-11-27T08:35:48.445Z,36.50
2017-11-27T08:36:52.604Z,33.50
2017-11-27T08:37:57.129Z,38.50
2017-11-27T08:39:01.391Z,43.00
2017-11-27T08:40:06.000Z,35.00
2017-11-27T08:41:10.169Z,37.50
2017-11-27T08:42:14.354Z,35.50
2017-11-27T08:43:18.535Z,46.00
2017-11-27T08:44:22.816Z,30.50
2017-11-27T08:45:27.343Z,50.00
2017-11-27T08:46:32.344Z,56.00
2017-11-27T08:47:36.494Z,42.50
2017-11-27T08:48:40.736Z,30.00
2017-11-27T08:49:45.052Z,38.00
2017-11-27T08:50:49.300Z,41.50
2017-11-27T08:51:53.544Z,58.50
2017-11-27T08:52:57.823Z,44.00
2017-11-27T08:54:02.015Z,42.50
2017-11-27T08:55:06.282Z,39.00
2017-11-27T08:56:10.455Z,38.00
2017-11-27T08:57:14.636Z,34.50
2017-11-27T08:58:19.249Z,38.50
2017-11-27T08:59:23.437Z,23.00
2017-11-27T09:00:28.092Z,57.00
2017-11-27T09:01:32.246Z,32.00
2017-11-27T09:02:36.371Z,38.50
2017-11-27T09:03:40.685Z,34.50
2017-11-27T09:04:45.149Z,27.00
2017-11-27T09:05:49.425Z,32.00
2017-11-27T09:06:53.619Z,32.00
2017-11-27T09:07:57.957Z,56.50
2017-11-27T09:09:02.237Z,53.00
2017-11-27T09:10:06.457Z,20.00
2017-11-27T09:11:10.977Z,33.00
2017-11-27T09:12:15.168Z,21.00
2017-11-27T09:13:19.381Z,42.00
2017-11-27T09:14:23.662Z,32.50
2017-11-27T09:15:28.947Z,39.00
2017-11-27T09:16:34.080Z,43.50
2017-11-27T09:17:38.965Z,42.00
2017-11-27T09:18:44.202Z,29.00
2017-11-27T09:19:48.436Z,30.00
2017-11-27T09:20:52.680Z,22.00
2017-11-27T09:21:56.863Z,24.50
2017-11-27T09:23:01.509Z,34.00
2017-11-27T09:24:05.729Z,30.00
2017-11-27T09:25:10.063Z,19.50
2017-11-27T09:26:14.218Z,35.50
2017-11-27T09:27:18.391Z,30.50
2017-11-27T09:28:22.616Z,21.50
2017-11-27T09:29:27.094Z,14.50
2017-11-27T09:30:31.565Z,35.50
2017-11-27T09:31:36.113Z,35.50
2017-11-27T09:32:40.273Z,36.00
2017-11-27T09:33:44.435Z,33.50
2017-11-27T09:34:48.671Z,28.00
2017-11-27T09:35:52.905Z,30.00
2017-11-27T09:36:57.083Z,37.00
2017-11-27T09:38:01.280Z,27.50
2017-11-27T09:39:06.159Z,32.00
2017-11-27T09:40:10.466Z,22.50
2017-11-27T09:41:14.710Z,44.00
2017-11-27T09:42:19.403Z,36.00
2017-11-27T09:43:23.639Z,28.00
2017-11-27T09:44:27.858Z,28.50
2017-11-27T09:45:33.012Z,33.50
2017-11-27T09:46:37.249Z,39.50
2017-11-27T09:47:41.765Z,18.50
2017-11-27T09:48:46.002Z,28.00
2017-11-27T09:49:50.310Z,24.50
2017-11-27T09:50:54.655Z,22.50
2017-11-27T09:51:58.828Z,27.50
2017-11-27T09:53:03.444Z,28.00
2017-11-27T09:54:08.461Z,27.00
2017-11-27T09:55:12.820Z,22.50
2017-11-27T09:56:17.036Z,22.00
2017-11-27T09:57:21.226Z,30.50
2017-11-27T09:58:25.429Z,30.50
2017-11-27T09:59:29.959Z,28.00
2017-11-27T10:00:35.659Z,29.00
2017-11-27T10:01:40.563Z,27.00
2017-11-27T10:02:44.748Z,21.50
2017-11-27T10:03:48.995Z,27.00
2017-11-27T10:04:53.249Z,25.00
2017-11-27T10:05:57.541Z,27.50
2017-11-27T10:07:01.741Z,31.50
2017-11-27T10:08:05.898Z,32.00
2017-11-27T10:09:10.092Z,29.50
2017-11-27T10:10:14.371Z,38.50
2017-11-27T10:11:18.837Z,30.00
2017-11-27T10:12:23.191Z,32.50
2017-11-27T10:13:27.381Z,21.50
2017-11-27T10:14:32.258Z,24.00
2017-11-27T10:15:37.430Z,24.50
2017-11-27T10:16:42.272Z,23.50
2017-11-27T10:17:46.862Z,26.00
2017-11-27T10:18:51.194Z,24.00
2017-11-27T10:19:56.435Z,25.50
2017-11-27T10:21:00.681Z,18.00
2017-11-27T10:22:04.978Z,27.50
2017-11-27T10:23:09.161Z,26.50
2017-11-27T10:24:13.347Z,29.00
2017-11-27T10:25:17.541Z,27.00
2017-11-27T10:26:21.835Z,17.50
2017-11-27T10:27:26.054Z,25.00
2017-11-27T10:28:30.940Z,24.00
2017-11-27T10:29:35.096Z,29.50
2017-11-27T10:30:39.673Z,40.00
2017-11-27T10:31:43.909Z,36.00
2017-11-27T10:32:48.073Z,16.00
2017-11-27T10:33:52.279Z,30.00
2017-11-27T10:34:56.484Z,21.00
2017-11-27T10:36:00.639Z,33.50
2017-11-27T10:37:05.265Z,30.00
2017-11-27T10:38:09.501Z,46.50
2017-11-27T10:39:13.732Z,25.00
2017-11-27T10:40:17.901Z,26.50
2017-11-27T10:41:22.167Z,22.00
2017-11-27T10:42:26.485Z,22.50
2017-11-27T10:43:30.766Z,28.00
2017-11-27T10:44:34.964Z,22.00
2017-11-27T10:45:40.252Z,29.00
2017-11-27T10:46:44.626Z,23.50
2017-11-27T10:47:48.908Z,28.00
2017-11-27T10:48:53.139Z,20.50
2017-11-27T10:49:57.392Z,17.50
2017-11-27T10:51:01.622Z,32.00
2017-11-27T10:52:05.808Z,36.50
2017-11-27T10:53:10.059Z,31.50
2017-11-27T10:54:14.599Z,31.50
2017-11-27T10:55:18.762Z,30.50
2017-11-27T10:56:22.990Z,28.50
2017-11-27T10:57:27.207Z,35.00
2017-11-27T10:58:31.551Z,26.50
2017-11-27T10:59:35.742Z,23.00
2017-11-27T11:00:44.329Z,30.00
2017-11-27T11:01:48.613Z,26.00
2017-11-27T11:02:52.786Z,16.00
2017-11-27T11:03:57.072Z,24.00
2017-11-27T11:05:01.233Z,29.50
2017-11-27T11:06:05.383Z,28.50
2017-11-27T11:07:09.933Z,30.50
2017-11-27T11:08:14.095Z,25.00
2017-11-27T11:09:18.264Z,43.50
2017-11-27T11:10:22.457Z,24.50
2017-11-27T11:11:26.714Z,29.00
2017-11-27T11:12:31.261Z,31.00
2017-11-27T11:13:36.173Z,32.00
2017-11-27T11:14:40.435Z,31.00
2017-11-27T11:15:44.861Z,30.00
2017-11-27T11:16:50.108Z,43.00
2017-11-27T11:17:55.000Z,25.00
2017-11-27T11:18:59.153Z,29.00
2017-11-27T11:20:03.565Z,21.00
2017-11-27T11:21:07.772Z,33.50
2017-11-27T11:22:12.013Z,36.00
2017-11-27T11:23:17.105Z,50.00
2017-11-27T11:24:21.628Z,26.50
2017-11-27T11:25:25.825Z,32.50
2017-11-27T11:26:30.121Z,29.00
2017-11-27T11:27:34.961Z,24.50
2017-11-27T11:28:39.309Z,26.00
2017-11-27T11:29:43.633Z,27.00
2017-11-27T11:30:48.715Z,31.00
2017-11-27T11:31:53.222Z,34.50
2017-11-27T11:32:57.421Z,26.50
2017-11-27T11:34:01.596Z,24.00
2017-11-27T11:35:05.884Z,26.00
2017-11-27T11:36:10.133Z,24.00
2017-11-27T11:37:14.517Z,23.50
2017-11-27T11:38:18.763Z,34.00
2017-11-27T11:39:22.949Z,28.00
2017-11-27T11:40:27.274Z,23.00
2017-11-27T11:41:31.457Z,28.00
2017-11-27T11:42:36.518Z,31.50
2017-11-27T11:43:41.053Z,26.00
2017-11-27T11:44:45.319Z,18.50
2017-11-27T11:45:49.805Z,31.00
2017-11-27T11:46:54.128Z,26.50
2017-11-27T11:47:58.341Z,19.50
2017-11-27T11:49:02.839Z,34.00
2017-11-27T11:50:07.124Z,28.00
2017-11-27T11:51:11.464Z,24.00
2017-11-27T11:52:15.689Z,25.00
2017-11-27T11:53:19.960Z,25.50
2017-11-27T11:54:24.213Z,20.00
2017-11-27T11:55:28.742Z,27.50
2017-11-27T11:56:33.077Z,25.00
2017-11-27T11:57:37.371Z,24.00
2017-11-27T11:58:41.666Z,25.50
2017-11-27T11:59:45.884Z,16.00
2017-11-27T12:00:51.459Z,29.50
2017-11-27T12:01:55.992Z,30.50
2017-11-27T12:03:00.193Z,17.50
2017-11-27T12:04:04.514Z,19.50
2017-11-27T12:05:08.846Z,21.00
2017-11-27T12:06:13.095Z,27.00
2017-11-27T12:07:17.299Z,25.50
2017-11-27T12:08:21.896Z,19.00
2017-11-27T12:09:26.133Z,19.50
2017-11-27T12:10:30.413Z,23.00
2017-11-27T12:11:34.609Z,18.00
2017-11-27T12:12:38.849Z,22.00
2017-11-27T12:13:43.160Z,24.00
2017-11-27T12:14:48.349Z,23.00
2017-11-27T12:15:52.981Z,26.00
2017-11-27T12:16:57.284Z,25.50
2017-11-27T12:18:01.518Z,25.00
2017-11-27T12:19:05.892Z,24.00
2017-11-27T12:20:10.082Z,23.00
2017-11-27T12:21:14.297Z,25.00
2017-11-27T12:22:18.575Z,26.50
2017-11-27T12:23:22.801Z,21.50
2017-11-27T12:24:27.109Z,21.00
2017-11-27T12:25:31.339Z,24.50
2017-11-27T12:26:35.524Z,23.50
2017-11-27T12:27:40.433Z,27.50
2017-11-27T12:28:45.960Z,22.50
2017-11-27T12:29:50.369Z,25.00
2017-11-27T12:30:54.675Z,31.00
2017-11-27T12:31:59.061Z,22.00
2017-11-27T12:33:03.285Z,26.50
2017-11-27T12:34:07.625Z,21.00
2017-11-27T12:35:11.907Z,24.50
2017-11-27T12:36:16.130Z,20.00
2017-11-27T12:37:20.378Z,25.00
2017-11-27T12:38:24.807Z,25.50
2017-11-27T12:39:29.924Z,25.00
2017-11-27T12:40:34.135Z,38.50
2017-11-27T12:41:38.459Z,32.00
2017-11-27T12:42:42.794Z,24.50
2017-11-27T12:43:48.087Z,28.00
2017-11-27T12:44:52.334Z,27.00
2017-11-27T12:45:56.849Z,28.00
2017-11-27T12:47:01.060Z,27.50
2017-11-27T12:48:05.300Z,30.50
2017-11-27T12:49:09.449Z,27.00
2017-11-27T12:50:13.776Z,31.50
2017-11-27T12:51:17.958Z,23.00
2017-11-27T12:52:22.270Z,28.00
2017-11-27T12:53:26.909Z,23.00
2017-11-27T12:54:31.155Z,19.50
2017-11-27T12:55:35.549Z,22.00
2017-11-27T12:56:40.680Z,21.00
2017-11-27T12:57:45.612Z,16.50
2017-11-27T12:58:51.120Z,19.50
2017-11-27T12:59:55.303Z,26.50
2017-11-27T13:00:59.634Z,30.50
2017-11-27T13:02:03.917Z,29.00
2017-11-27T13:03:08.179Z,26.00
2017-11-27T13:04:12.499Z,27.50
2017-11-27T13:05:17.149Z,29.50
2017-11-27T13:06:21.369Z,21.00
2017-11-27T13:07:25.685Z,35.00
2017-11-27T13:08:29.925Z,28.50
2017-11-27T13:09:34.367Z,26.50
2017-11-27T13:10:39.358Z,28.00
2017-11-27T13:11:43.582Z,28.50
2017-11-27T13:12:48.716Z,25.50
2017-11-27T13:13:53.014Z,28.50
2017-11-27T13:14:57.262Z,30.00
2017-11-27T13:16:01.881Z,38.50
2017-11-27T13:17:06.834Z,31.50
2017-11-27T13:18:11.055Z,24.50
2017-11-27T13:19:15.265Z,28.00
2017-11-27T13:20:19.448Z,26.00
2017-11-27T13:21:23.693Z,19.00
2017-11-27T13:22:28.072Z,30.50
2017-11-27T13:23:32.696Z,28.50
2017-11-27T13:24:36.913Z,29.50
2017-11-27T13:25:42.080Z,20.00
2017-11-27T13:26:47.235Z,31.00
2017-11-27T13:27:51.554Z,36.00
2017-11-27T13:28:55.889Z,37.00
2017-11-27T13:30:00.100Z,37.50
2017-11-27T13:31:04.296Z,24.50
2017-11-27T13:32:08.637Z,32.00
2017-11-27T13:33:12.853Z,22.00
2017-11-27T13:34:17.125Z,27.00
2017-11-27T13:35:21.609Z,29.50
2017-11-27T13:36:25.891Z,35.50
2017-11-27T13:37:30.168Z,32.50
2017-11-27T13:38:34.409Z,28.50
2017-11-27T13:39:38.689Z,27.00
2017-11-27T13:40:43.061Z,29.00
2017-11-27T13:41:48.188Z,33.00
2017-11-27T13:42:52.383Z,28.00
2017-11-27T13:43:56.632Z,23.50
2017-11-27T13:45:00.882Z,38.50
2017-11-27T13:46:07.590Z,30.50
2017-11-27T13:47:11.879Z,28.00
2017-11-27T13:48:16.127Z,23.00
2017-11-27T13:49:20.331Z,32.00
2017-11-27T13:50:24.716Z,33.50
2017-11-27T13:51:29.382Z,27.50